Blue Grass Airport
KLEX : now visible

Airfield :











YOU CAN JOIN US ON...

 
LOGIN :

Register | Disclaimer

   EN    FR    IT 

 









Legend :    VFR   Marginal VFR   IFR   Intensive IFR   Very Intensive IFR
Visi :
Ceiling :
>= 8 km
>= 3000ft
5 to 8 km
1000 to 3000 ft
1500m to 5 km
500 to 1000 ft
800 to 1500m
200 to 500 ft
< 800m
< 200 ft
Symbols :   Thunderstorms  Fog  Heavy snow  Heavy precipitations  Wind > 20 kt






- Airport Elevation : 979 ft
- IATA code : LEX


KLEX - Blue Grass

CURRENT METAR :
  • 281554Z 20012G16KT 10SM FEW030 24/17 A3002 RMK AO2 SLP158 T02440172 $

EXPIRED METARs :
  • 281454Z 24009KT 10SM SCT024 BKN031 22/18 A3002 RMK AO2 SLP157 T02220178 51008 $
  • 281426Z AUTO 24008KT BKN018 22/18 A3002 RMK AO2 T02170178 $
  • 281354Z 22009KT 10SM FEW015 21/17 A3001 RMK AO2 SLP156 T02110172

TAF KLEX
Valid from the 28 at 12:00 until the 29 at 12:00 UTC


281125Z 2812/2912 18008KT P6SM BKN035
TEMPO 2812/2813 SCT008
FM282000 20010KT P6SM VCSH OVC050
PROB30 2821/2902 4SM TSRA OVC025CB
FM290300 21005KT P6SM OVC100
KZID FIR / North America



MET'MAP, your aeronautical weather chart ! - Copyright ORBIFLY December 2007 - Disclaimer

ORBIFLY MET'MAP TEAM :

Programming & Development : Alexandra Zaïnal
Concept & original design : Baudouin d'Aumeries
Assistance for programming : Marc-Olivier Méhu
Technical & hardware support : Manuel Goepfert

Contact : metmap@orbifly.com




SOURCES & CREDITS :

   NOAA       Earth
Advisory